Viimsi — ES2084 — position and weather

sailwx.info

Track history (hours):
 
Tides and Currents Weather Stations Pressure Air Temp Water Temp Dewpoint Dewpoint Depression Visibility Wind Speed Wind Dir Waves Ship Positions

Viimsi

Last reported at 2016-Jul-27 13:30 UTC. Time now 2016-Jul-27 21:08 UTC.
Position N 59°22' E 023°58'.

Length 78 m; draft 4.9 m.

Type: Ship. MMSI: 276297000.

Date/timePositionNaut miles runAvg speedWind from/ knotsBaromVisibWave heightAir tempDewpointWater temp
2016-Jul-27 13:30N 59°22' E 023°58'1 0.1
2016-Jul-26 18:26N 59°23' E 024°00'11 9.0
2016-Jul-26 17:10N 59°30' E 024°18'6 9.3
2016-Jul-26 16:34N 59°30' E 024°29'8 8.3
2016-Jul-26 15:33N 59°30' E 024°46'1 1.5
2016-Jul-26 14:34N 59°30' E 024°49'0 0.0
2016-Jul-26 13:34N 59°30' E 024°49'0 0.0
2016-Jul-26 12:34N 59°30' E 024°49'0 0.0
2016-Jul-26 11:34N 59°30' E 024°49'0 0.0
2016-Jul-26 10:34N 59°30' E 024°49'0 0.0
2016-Jul-26 09:33N 59°30' E 024°49'0 0.0
2016-Jul-26 08:34N 59°30' E 024°49'0 0.0
2016-Jul-26 07:33N 59°30' E 024°49'0 0.0
2016-Jul-26 06:33N 59°30' E 024°49'0 0.0
2016-Jul-26 05:34N 59°30' E 024°49'0 0.0
2016-Jul-26 04:33N 59°30' E 024°49'0 0.0
2016-Jul-26 03:33N 59°30' E 024°49'0 0.0
2016-Jul-26 02:33N 59°30' E 024°49'0 0.0
2016-Jul-26 01:33N 59°30' E 024°49'0 0.0
2016-Jul-26 00:34N 59°30' E 024°49'0 0.0
2016-Jul-25 23:33N 59°30' E 024°49'0 0.0
2016-Jul-25 22:34N 59°30' E 024°49'0 0.0
2016-Jul-25 21:33N 59°30' E 024°49'0 0.0
2016-Jul-25 20:33N 59°30' E 024°49'0 0.0
2016-Jul-25 19:33N 59°30' E 024°49'0 0.0
2016-Jul-25 18:34N 59°30' E 024°49'0 0.0
2016-Jul-25 17:34N 59°30' E 024°49'0 0.0
2016-Jul-25 16:33N 59°30' E 024°49'0 0.0
2016-Jul-25 15:26N 59°30' E 024°49'0 0.3
2016-Jul-25 14:24N 59°30' E 024°48'9 2.7
2016-Jul-25 11:10N 59°29' E 024°32'0 0.0
2016-Jul-25 10:23N 59°29' E 024°32'2 0.5
2016-Jul-25 06:30N 59°29' E 024°35'4 4.0
2016-Jul-25 05:29N 59°28' E 024°43'0 0.0
2016-Jul-25 04:31N 59°28' E 024°43'0 0.0
2016-Jul-25 03:33N 59°28' E 024°43'0 0.0
2016-Jul-25 02:33N 59°28' E 024°43'0 0.0
2016-Jul-25 01:34N 59°28' E 024°43'0 0.0
2016-Jul-25 00:34N 59°28' E 024°43'0 0.0
2016-Jul-24 23:33N 59°28' E 024°43'0 0.0
2016-Jul-24 22:33N 59°28' E 024°43'0 0.0
2016-Jul-24 21:34N 59°28' E 024°43'0 0.0
2016-Jul-24 20:33N 59°28' E 024°43'0 0.0
2016-Jul-24 19:33N 59°28' E 024°43'0 0.0
2016-Jul-24 18:33N 59°28' E 024°43'0 0.0
2016-Jul-24 17:33N 59°28' E 024°43'0 0.0
2016-Jul-24 16:33N 59°28' E 024°43'0 0.0
2016-Jul-24 15:33N 59°28' E 024°43'0 0.0
2016-Jul-24 14:29N 59°28' E 024°43'3 2.8
2016-Jul-24 13:32N 59°30' E 024°44'7 7.0
2016-Jul-24 12:32N 59°37' E 024°46'2 2.0
2016-Jul-24 11:33N 59°36' E 024°48'0 0.0
2016-Jul-24 10:33N 59°36' E 024°48'1 0.6
2016-Jul-24 09:33N 59°35' E 024°49'0 0.0
2016-Jul-24 08:32N 59°35' E 024°49'0 0.0
2016-Jul-24 07:29N 59°35' E 024°49'0 0.0
2016-Jul-24 06:33N 59°35' E 024°49'0 0.0
2016-Jul-24 05:33N 59°35' E 024°49'1 0.0
2016-Jul-22 12:33N 59°35' E 024°51'4 4.1
2016-Jul-22 11:33N 59°33' E 024°44'6 6.1
2016-Jul-22 10:33N 59°28' E 024°39'0 0.2
2016-Jul-22 09:33N 59°28' E 024°39'0 0.0
2016-Jul-22 08:33N 59°28' E 024°39'0 0.0
2016-Jul-22 07:31N 59°28' E 024°39'1 0.4
2016-Jul-22 05:33N 59°28' E 024°37'3 2.8
2016-Jul-22 04:33N 59°28' E 024°43'0 0.0
2016-Jul-22 03:31N 59°28' E 024°43'0 0.0
2016-Jul-22 02:33N 59°28' E 024°43'0 0.0
2016-Jul-22 01:33N 59°28' E 024°43'0 0.0
2016-Jul-22 00:33N 59°28' E 024°43'0 0.0
2016-Jul-21 23:33N 59°28' E 024°43'0 0.0
2016-Jul-21 22:33N 59°28' E 024°43'0 0.0
2016-Jul-21 21:33N 59°28' E 024°43'0 0.0
2016-Jul-21 20:34N 59°28' E 024°43'0 0.0
2016-Jul-21 19:33N 59°28' E 024°43'0 0.0
2016-Jul-21 18:33N 59°28' E 024°43'0 0.0
2016-Jul-21 17:34N 59°28' E 024°43'0 0.0
2016-Jul-21 16:33N 59°28' E 024°43'0 0.0
2016-Jul-21 15:34N 59°28' E 024°43'0 0.0
2016-Jul-21 14:34N 59°28' E 024°43'0 0.0
2016-Jul-21 13:34N 59°28' E 024°43'0 0.0
2016-Jul-21 12:34N 59°28' E 024°43'0 0.3
2016-Jul-21 11:34N 59°28' E 024°43'7 7.3
2016-Jul-21 10:33N 59°30' E 024°29'2 0.1
2016-Jul-20 19:33N 59°30' E 024°27'9 9.3
2016-Jul-20 18:33N 59°28' E 024°44'1 0.9
2016-Jul-20 17:30N 59°28' E 024°43'2 1.6
2016-Jul-20 16:30N 59°29' E 024°44'9 9.1
2016-Jul-20 15:32N 59°38' E 024°44'9 1.8
2016-Jul-20 10:13N 59°31' E 024°57'6 9.3
2016-Jul-20 09:33N 59°36' E 024°48'0 0.2
2016-Jul-20 08:32N 59°36' E 024°48'0 0.0
2016-Jul-20 07:30N 59°36' E 024°48'0 0.0
2016-Jul-20 06:32N 59°36' E 024°48'0 0.0
2016-Jul-20 05:33N 59°36' E 024°48'0 0.2
2016-Jul-20 03:33N 59°35' E 024°49'0 0.0
2016-Jul-20 02:34N 59°35' E 024°49'0 0.0
2016-Jul-20 01:34N 59°35' E 024°49'0 0.0
2016-Jul-20 00:31N 59°35' E 024°49'0 0.0
2016-Jul-19 23:33N 59°35' E 024°49'0 0.1
2016-Jul-19 22:33N 59°35' E 024°49'0 0.4
2016-Jul-19 21:33N 59°35' E 024°48'0 0.0
2016-Jul-19 20:33N 59°35' E 024°48'0 0.4
2016-Jul-19 19:33N 59°35' E 024°49'0 0.0
2016-Jul-19 18:33N 59°35' E 024°49'0 0.0
2016-Jul-19 17:32N 59°35' E 024°49'0 0.3
2016-Jul-19 16:33N 59°35' E 024°49'0 0.0
2016-Jul-19 15:33N 59°35' E 024°49'0 0.0
2016-Jul-19 14:33N 59°35' E 024°49'0 0.0
2016-Jul-19 13:33N 59°35' E 024°49'0 0.0
2016-Jul-19 12:33N 59°35' E 024°49'0 0.0
2016-Jul-19 11:34N 59°35' E 024°49'0 0.0
2016-Jul-19 10:29N 59°35' E 024°49'0 0.0
2016-Jul-19 09:34N 59°35' E 024°49'0 0.0
2016-Jul-19 08:33N 59°35' E 024°49'0 0.0
2016-Jul-19 07:33N 59°35' E 024°49'0 0.0
2016-Jul-19 04:34N 59°35' E 024°49'0 0.0
2016-Jul-19 03:33N 59°35' E 024°49'0 0.4
2016-Jul-19 02:33N 59°36' E 024°48'0 0.0
2016-Jul-19 01:33N 59°36' E 024°48'0 0.0
2016-Jul-19 00:34N 59°36' E 024°48'1 0.7
2016-Jul-18 23:33N 59°35' E 024°48'0 0.0
2016-Jul-18 22:34N 59°35' E 024°48'0 0.0
2016-Jul-18 21:33N 59°35' E 024°48'0 0.0
2016-Jul-18 20:29N 59°35' E 024°48'1 1.6
2016-Jul-18 19:34N 59°36' E 024°48'5 5.1
2016-Jul-18 18:33N 59°31' E 024°45'4 3.8
2016-Jul-18 17:33N 59°28' E 024°43'0 0.0
2016-Jul-18 16:33N 59°28' E 024°43'0 0.0
2016-Jul-18 15:31N 59°28' E 024°43'0 0.0
2016-Jul-18 14:32N 59°28' E 024°43'0 0.0
2016-Jul-18 13:32N 59°28' E 024°43'2 2.2
2016-Jul-18 12:33N 59°30' E 024°43'6 5.9
2016-Jul-18 11:30N 59°31' E 024°31'0 0.0
2016-Jul-18 10:33N 59°31' E 024°31'0 0.0
2016-Jul-18 09:24N 59°31' E 024°31'0 0.0
2016-Jul-18 08:08N 59°31' E 024°31'0 0.0
2016-Jul-18 07:29N 59°31' E 024°31'0 0.0
2016-Jul-18 06:18N 59°31' E 024°31'1 1.4
2016-Jul-18 05:33N 59°31' E 024°33'6 5.8
2016-Jul-18 04:32N 59°28' E 024°43'0 0.0
2016-Jul-18 03:33N 59°28' E 024°43'0 0.0
2016-Jul-18 02:33N 59°28' E 024°43'0 0.0
2016-Jul-18 01:33N 59°28' E 024°43'0 0.0
2016-Jul-18 00:33N 59°28' E 024°43'0 0.0
2016-Jul-17 23:34N 59°28' E 024°43'0 0.0
2016-Jul-17 22:33N 59°28' E 024°43'0 0.0
2016-Jul-17 21:34N 59°28' E 024°43'0 0.0
2016-Jul-17 20:34N 59°28' E 024°43'0 0.0
2016-Jul-17 19:33N 59°28' E 024°43'0 0.0
2016-Jul-17 18:33N 59°28' E 024°43'0 0.0
2016-Jul-17 17:33N 59°28' E 024°43'1 0.7
2016-Jul-17 16:33N 59°28' E 024°44'9 8.8
2016-Jul-17 15:31N 59°37' E 024°40'  
Track history (hours):
 
Tides and Currents Weather Stations Pressure Air Temp Water Temp Dewpoint Dewpoint Depression Visibility Wind Speed Wind Dir Waves Ship Positions

Viimsi

Last reported at 2016-Jul-27 13:30 UTC. Time now 2016-Jul-27 21:08 UTC.
Position N 59°22' E 023°58'.

Length 78 m; draft 4.9 m.

Type: Ship. MMSI: 276297000.

Date/timePositionNaut miles runAvg speedWind from/ knotsBaromVisibWave heightAir tempDewpointWater temp
2016-Jul-27 13:30N 59°22' E 023°58'1 0.1
2016-Jul-26 18:26N 59°23' E 024°00'11 9.0
2016-Jul-26 17:10N 59°30' E 024°18'6 9.3
2016-Jul-26 16:34N 59°30' E 024°29'8 8.3
2016-Jul-26 15:33N 59°30' E 024°46'1 1.5
2016-Jul-26 14:34N 59°30' E 024°49'0 0.0
2016-Jul-26 13:34N 59°30' E 024°49'0 0.0
2016-Jul-26 12:34N 59°30' E 024°49'0 0.0
2016-Jul-26 11:34N 59°30' E 024°49'0 0.0
2016-Jul-26 10:34N 59°30' E 024°49'0 0.0
2016-Jul-26 09:33N 59°30' E 024°49'0 0.0
2016-Jul-26 08:34N 59°30' E 024°49'0 0.0
2016-Jul-26 07:33N 59°30' E 024°49'0 0.0
2016-Jul-26 06:33N 59°30' E 024°49'0 0.0
2016-Jul-26 05:34N 59°30' E 024°49'0 0.0
2016-Jul-26 04:33N 59°30' E 024°49'0 0.0
2016-Jul-26 03:33N 59°30' E 024°49'0 0.0
2016-Jul-26 02:33N 59°30' E 024°49'0 0.0
2016-Jul-26 01:33N 59°30' E 024°49'0 0.0
2016-Jul-26 00:34N 59°30' E 024°49'0 0.0
2016-Jul-25 23:33N 59°30' E 024°49'0 0.0
2016-Jul-25 22:34N 59°30' E 024°49'0 0.0
2016-Jul-25 21:33N 59°30' E 024°49'0 0.0
2016-Jul-25 20:33N 59°30' E 024°49'0 0.0
2016-Jul-25 19:33N 59°30' E 024°49'0 0.0
2016-Jul-25 18:34N 59°30' E 024°49'0 0.0
2016-Jul-25 17:34N 59°30' E 024°49'0 0.0
2016-Jul-25 16:33N 59°30' E 024°49'0 0.0
2016-Jul-25 15:26N 59°30' E 024°49'0 0.3
2016-Jul-25 14:24N 59°30' E 024°48'9 2.7
2016-Jul-25 11:10N 59°29' E 024°32'0 0.0
2016-Jul-25 10:23N 59°29' E 024°32'2 0.5
2016-Jul-25 06:30N 59°29' E 024°35'4 4.0
2016-Jul-25 05:29N 59°28' E 024°43'0 0.0
2016-Jul-25 04:31N 59°28' E 024°43'0 0.0
2016-Jul-25 03:33N 59°28' E 024°43'0 0.0
2016-Jul-25 02:33N 59°28' E 024°43'0 0.0
2016-Jul-25 01:34N 59°28' E 024°43'0 0.0
2016-Jul-25 00:34N 59°28' E 024°43'0 0.0
2016-Jul-24 23:33N 59°28' E 024°43'0 0.0
2016-Jul-24 22:33N 59°28' E 024°43'0 0.0
2016-Jul-24 21:34N 59°28' E 024°43'0 0.0
2016-Jul-24 20:33N 59°28' E 024°43'0 0.0
2016-Jul-24 19:33N 59°28' E 024°43'0 0.0
2016-Jul-24 18:33N 59°28' E 024°43'0 0.0
2016-Jul-24 17:33N 59°28' E 024°43'0 0.0
2016-Jul-24 16:33N 59°28' E 024°43'0 0.0
2016-Jul-24 15:33N 59°28' E 024°43'0 0.0
2016-Jul-24 14:29N 59°28' E 024°43'3 2.8
2016-Jul-24 13:32N 59°30' E 024°44'7 7.0
2016-Jul-24 12:32N 59°37' E 024°46'2 2.0
2016-Jul-24 11:33N 59°36' E 024°48'0 0.0
2016-Jul-24 10:33N 59°36' E 024°48'1 0.6
2016-Jul-24 09:33N 59°35' E 024°49'0 0.0
2016-Jul-24 08:32N 59°35' E 024°49'0 0.0
2016-Jul-24 07:29N 59°35' E 024°49'0 0.0
2016-Jul-24 06:33N 59°35' E 024°49'0 0.0
2016-Jul-24 05:33N 59°35' E 024°49'1 0.0
2016-Jul-22 12:33N 59°35' E 024°51'4 4.1
2016-Jul-22 11:33N 59°33' E 024°44'6 6.1
2016-Jul-22 10:33N 59°28' E 024°39'0 0.2
2016-Jul-22 09:33N 59°28' E 024°39'0 0.0
2016-Jul-22 08:33N 59°28' E 024°39'0 0.0
2016-Jul-22 07:31N 59°28' E 024°39'1 0.4
2016-Jul-22 05:33N 59°28' E 024°37'3 2.8
2016-Jul-22 04:33N 59°28' E 024°43'0 0.0
2016-Jul-22 03:31N 59°28' E 024°43'0 0.0
2016-Jul-22 02:33N 59°28' E 024°43'0 0.0
2016-Jul-22 01:33N 59°28' E 024°43'0 0.0
2016-Jul-22 00:33N 59°28' E 024°43'0 0.0
2016-Jul-21 23:33N 59°28' E 024°43'0 0.0
2016-Jul-21 22:33N 59°28' E 024°43'0 0.0
2016-Jul-21 21:33N 59°28' E 024°43'0 0.0
2016-Jul-21 20:34N 59°28' E 024°43'0 0.0
2016-Jul-21 19:33N 59°28' E 024°43'0 0.0
2016-Jul-21 18:33N 59°28' E 024°43'0 0.0
2016-Jul-21 17:34N 59°28' E 024°43'0 0.0
2016-Jul-21 16:33N 59°28' E 024°43'0 0.0
2016-Jul-21 15:34N 59°28' E 024°43'0 0.0
2016-Jul-21 14:34N 59°28' E 024°43'0 0.0
2016-Jul-21 13:34N 59°28' E 024°43'0 0.0
2016-Jul-21 12:34N 59°28' E 024°43'0 0.3
2016-Jul-21 11:34N 59°28' E 024°43'7 7.3
2016-Jul-21 10:33N 59°30' E 024°29'2 0.1
2016-Jul-20 19:33N 59°30' E 024°27'9 9.3
2016-Jul-20 18:33N 59°28' E 024°44'1 0.9
2016-Jul-20 17:30N 59°28' E 024°43'2 1.6
2016-Jul-20 16:30N 59°29' E 024°44'9 9.1
2016-Jul-20 15:32N 59°38' E 024°44'9 1.8
2016-Jul-20 10:13N 59°31' E 024°57'6 9.3
2016-Jul-20 09:33N 59°36' E 024°48'0 0.2
2016-Jul-20 08:32N 59°36' E 024°48'0 0.0
2016-Jul-20 07:30N 59°36' E 024°48'0 0.0
2016-Jul-20 06:32N 59°36' E 024°48'0 0.0
2016-Jul-20 05:33N 59°36' E 024°48'0 0.2
2016-Jul-20 03:33N 59°35' E 024°49'0 0.0
2016-Jul-20 02:34N 59°35' E 024°49'0 0.0
2016-Jul-20 01:34N 59°35' E 024°49'0 0.0
2016-Jul-20 00:31N 59°35' E 024°49'0 0.0
2016-Jul-19 23:33N 59°35' E 024°49'0 0.1
2016-Jul-19 22:33N 59°35' E 024°49'0 0.4
2016-Jul-19 21:33N 59°35' E 024°48'0 0.0
2016-Jul-19 20:33N 59°35' E 024°48'0 0.4
2016-Jul-19 19:33N 59°35' E 024°49'0 0.0
2016-Jul-19 18:33N 59°35' E 024°49'0 0.0
2016-Jul-19 17:32N 59°35' E 024°49'0 0.3
2016-Jul-19 16:33N 59°35' E 024°49'0 0.0
2016-Jul-19 15:33N 59°35' E 024°49'0 0.0
2016-Jul-19 14:33N 59°35' E 024°49'0 0.0
2016-Jul-19 13:33N 59°35' E 024°49'0 0.0
2016-Jul-19 12:33N 59°35' E 024°49'0 0.0
2016-Jul-19 11:34N 59°35' E 024°49'0 0.0
2016-Jul-19 10:29N 59°35' E 024°49'0 0.0
2016-Jul-19 09:34N 59°35' E 024°49'0 0.0
2016-Jul-19 08:33N 59°35' E 024°49'0 0.0
2016-Jul-19 07:33N 59°35' E 024°49'0 0.0
2016-Jul-19 04:34N 59°35' E 024°49'0 0.0
2016-Jul-19 03:33N 59°35' E 024°49'0 0.4
2016-Jul-19 02:33N 59°36' E 024°48'0 0.0
2016-Jul-19 01:33N 59°36' E 024°48'0 0.0
2016-Jul-19 00:34N 59°36' E 024°48'1 0.7
2016-Jul-18 23:33N 59°35' E 024°48'0 0.0
2016-Jul-18 22:34N 59°35' E 024°48'0 0.0
2016-Jul-18 21:33N 59°35' E 024°48'0 0.0
2016-Jul-18 20:29N 59°35' E 024°48'1 1.6
2016-Jul-18 19:34N 59°36' E 024°48'5 5.1
2016-Jul-18 18:33N 59°31' E 024°45'4 3.8
2016-Jul-18 17:33N 59°28' E 024°43'0 0.0
2016-Jul-18 16:33N 59°28' E 024°43'0 0.0
2016-Jul-18 15:31N 59°28' E 024°43'0 0.0
2016-Jul-18 14:32N 59°28' E 024°43'0 0.0
2016-Jul-18 13:32N 59°28' E 024°43'2 2.2
2016-Jul-18 12:33N 59°30' E 024°43'6 5.9
2016-Jul-18 11:30N 59°31' E 024°31'0 0.0
2016-Jul-18 10:33N 59°31' E 024°31'0 0.0
2016-Jul-18 09:24N 59°31' E 024°31'0 0.0
2016-Jul-18 08:08N 59°31' E 024°31'0 0.0
2016-Jul-18 07:29N 59°31' E 024°31'0 0.0
2016-Jul-18 06:18N 59°31' E 024°31'1 1.4
2016-Jul-18 05:33N 59°31' E 024°33'6 5.8
2016-Jul-18 04:32N 59°28' E 024°43'0 0.0
2016-Jul-18 03:33N 59°28' E 024°43'0 0.0
2016-Jul-18 02:33N 59°28' E 024°43'0 0.0
2016-Jul-18 01:33N 59°28' E 024°43'0 0.0
2016-Jul-18 00:33N 59°28' E 024°43'0 0.0
2016-Jul-17 23:34N 59°28' E 024°43'0 0.0
2016-Jul-17 22:33N 59°28' E 024°43'0 0.0
2016-Jul-17 21:34N 59°28' E 024°43'0 0.0
2016-Jul-17 20:34N 59°28' E 024°43'0 0.0
2016-Jul-17 19:33N 59°28' E 024°43'0 0.0
2016-Jul-17 18:33N 59°28' E 024°43'0 0.0
2016-Jul-17 17:33N 59°28' E 024°43'1 0.7
2016-Jul-17 16:33N 59°28' E 024°44'9 8.8
2016-Jul-17 15:31N 59°37' E 024°40'  

Dump ship's entire track history